Agstapha, Azerbaijan

2:44 AM AZT on March 05, 2015 (GMT +0400)
Tbilisi International Air | Change Station
CLOSE
Current Station
Airport
Location: Tbilisi International Air,
Elevation: 1624 ft
Nearby Weather Stations

Elev 1624 ft 41.67 °N, 44.95 °E | Updated 14 minutes ago

Clear
Clear
41 °F
Feels Like 30 °F
N
28
Wind Variable Wind from WNW
Gusts 40 mph

Today
High -- | Low -- °F
--% Chance of Precip.
Yesterday
High -- | Low -- °F
Precip. -- in
7:27 AM 6:53 PM
Waxing Gibbous, 99% visible
Pressure 30.06 in
Visibility -9999.0 miles
Clouds
Windchill 30 °F
Dew Point 27 °F
Humidity 57%
Rainfall 0.00 in
Snow Depth Not available.
UV Not available.
Pollen Not available.
Air Quality Not available.
Flu Activity Not available.
METAR UGTB 042230Z 30024G35KT CAVOK 05/M03 Q1018 R31L/CLRD80 NOSIG

More Conditions Fewer Conditions

Pressure 30.06 in
Visibility -9999.0 miles
Clouds
Windchill 30 °F
Dew Point 27 °F
Humidity 57%
Rainfall 0.00 in
Snow Depth Not available.
UV Not available.
Pollen Not available.
Air Quality Not available.
Flu Activity Not available.
METAR UGTB 042230Z 30024G35KT CAVOK 05/M03 Q1018 R31L/CLRD80 NOSIG

More Conditions Fewer Conditions

10-Day Weather Forecast

Almanac

Astronomy

Mar. 05, 2015 Rise Set
Actual Time
Civil Twilight
Nautical Twilight
Astronomical Twilight
Moon
Length of Visible Light
Length of Day
Tomorrow will be .
, % of the Moon is Illuminated

Today's Extremes

Country Highs Country Lows

Community

WunderPhotos

Upload Photos

1,802,595 photos uploaded!

WunderBlogs® & News

Nearby

Air Quality

  Air Quality AQ Index Pollutant
Not available.

Snow Depth

Station Depth Elevation

Earthquake Activity

City Distance Mag. Time & Date
Minimum magnitude displayed is 2.5.

Coastal Water Temperatures

Place Temperature

Nearby Weather Stations